Terminal Aerodrome Forecast
Issued by NWS Hastings, NE

Current Version | Previous Version | Text Only | Print | Product List | Glossary On
Versions: 1 2 3 4 5 6 7 8 9 10 11 12
000
FTUS43 KGID 011734
TAFGRI
TAF
KGRI 011734Z 0118/0218 14006KT P6SM SCT150 BKN200
     FM020000 15005KT P6SM SCT130
     FM021200 16009KT P6SM SCT060=

USA.gov is the U.S. government's official web portal to all federal, state and local government web resources and services.